createdAt,value
2019-05-25T00:00:28.593Z,4.85
2019-05-25T00:03:32.928Z,5.33
2019-05-25T00:06:36.101Z,5.15
2019-05-25T00:09:40.360Z,4.60
2019-05-25T00:12:43.524Z,5.42
2019-05-25T00:15:46.718Z,4.70
2019-05-25T00:18:49.948Z,4.97
2019-05-25T00:21:53.008Z,4.58
2019-05-25T00:24:56.236Z,4.80
2019-05-25T00:27:59.387Z,4.42
2019-05-25T00:31:02.668Z,5.67
2019-05-25T00:34:06.028Z,5.08
2019-05-25T00:37:09.279Z,5.20
2019-05-25T00:40:12.483Z,5.37
2019-05-25T00:43:15.573Z,5.42
2019-05-25T00:46:18.696Z,5.12
2019-05-25T00:49:21.979Z,5.50
2019-05-25T00:52:25.056Z,5.03
2019-05-25T00:55:28.247Z,5.40
2019-05-25T00:58:31.412Z,5.45
2019-05-25T01:01:56.430Z,4.90
2019-05-25T01:05:00.713Z,5.80
2019-05-25T01:08:05.252Z,5.55
2019-05-25T01:11:08.396Z,5.97
2019-05-25T01:14:11.624Z,4.95
2019-05-25T01:17:15.963Z,4.70
2019-05-25T01:20:21.091Z,4.00
2019-05-25T01:23:24.153Z,3.47
2019-05-25T01:26:27.244Z,4.95
2019-05-25T01:29:30.391Z,3.87
2019-05-25T01:32:33.661Z,3.62
2019-05-25T01:35:36.764Z,3.58
2019-05-25T01:38:39.956Z,3.27
2019-05-25T01:41:43.009Z,3.70
2019-05-25T01:44:46.160Z,4.17
2019-05-25T01:47:49.400Z,3.67
2019-05-25T01:50:52.735Z,3.40
2019-05-25T01:53:55.795Z,3.85
2019-05-25T01:56:58.979Z,4.00
2019-05-25T02:00:04.129Z,3.62
2019-05-25T02:03:07.736Z,4.17
2019-05-25T02:06:10.832Z,4.30
2019-05-25T02:09:14.011Z,4.33
2019-05-25T02:12:17.449Z,4.33
2019-05-25T02:15:20.872Z,4.10
2019-05-25T02:18:24.219Z,4.20
2019-05-25T02:21:27.415Z,4.97
2019-05-25T02:24:30.540Z,4.90
2019-05-25T02:27:33.720Z,4.90
2019-05-25T02:30:37.309Z,5.60
2019-05-25T02:33:40.522Z,5.05
2019-05-25T02:36:44.831Z,5.37
2019-05-25T02:39:47.965Z,5.58
2019-05-25T02:42:51.337Z,4.83
2019-05-25T02:45:55.806Z,5.28
2019-05-25T02:48:58.965Z,4.75
2019-05-25T02:52:02.262Z,5.30
2019-05-25T02:55:07.821Z,5.33
2019-05-25T02:58:11.292Z,5.47
2019-05-25T03:01:14.565Z,5.37
2019-05-25T03:04:19.992Z,5.17
2019-05-25T03:07:23.638Z,5.47
2019-05-25T03:10:28.073Z,4.92
2019-05-25T03:13:32.384Z,4.25
2019-05-25T03:16:36.179Z,5.00
2019-05-25T03:19:41.117Z,5.28
2019-05-25T03:22:44.720Z,5.40
2019-05-25T03:25:50.018Z,4.95
2019-05-25T03:28:55.156Z,5.00
2019-05-25T03:31:59.847Z,5.15
2019-05-25T03:35:03.511Z,5.72
2019-05-25T03:38:07.970Z,4.45
2019-05-25T03:41:11.453Z,5.10
2019-05-25T03:44:14.842Z,4.60
2019-05-25T03:47:19.161Z,4.97
2019-05-25T03:50:22.520Z,4.00
2019-05-25T03:53:25.907Z,4.62
2019-05-25T03:56:30.271Z,4.45
2019-05-25T03:59:33.656Z,3.87
2019-05-25T04:02:39.518Z,4.22
2019-05-25T04:05:42.736Z,4.30
2019-05-25T04:08:46.133Z,3.33
2019-05-25T04:11:49.579Z,3.50
2019-05-25T04:14:52.958Z,3.65
2019-05-25T04:17:56.072Z,3.17
2019-05-25T04:20:59.604Z,3.20
2019-05-25T04:24:02.791Z,3.50
2019-05-25T04:27:06.512Z,3.58
2019-05-25T04:30:09.991Z,3.37
2019-05-25T04:33:15.205Z,3.05
2019-05-25T04:36:18.773Z,3.22
2019-05-25T04:39:23.636Z,3.20
2019-05-25T04:42:26.815Z,3.42
2019-05-25T04:45:30.201Z,2.77
2019-05-25T04:48:36.238Z,3.27
2019-05-25T04:51:41.060Z,2.67
2019-05-25T04:54:46.499Z,2.77
2019-05-25T04:57:49.746Z,2.77
2019-05-25T05:00:53.193Z,2.83
2019-05-25T05:03:57.661Z,3.40
2019-05-25T05:07:04.626Z,2.65
2019-05-25T05:10:08.013Z,2.62
2019-05-25T05:13:11.100Z,2.25
2019-05-25T05:16:14.176Z,2.65
2019-05-25T05:19:19.086Z,2.75
2019-05-25T05:22:22.344Z,3.27
2019-05-25T05:25:25.402Z,2.75
2019-05-25T05:28:28.600Z,2.83
2019-05-25T05:31:31.823Z,2.90
2019-05-25T05:34:35.071Z,2.80
2019-05-25T05:37:40.590Z,3.30
2019-05-25T05:40:44.755Z,2.50
2019-05-25T05:43:49.179Z,2.98
2019-05-25T05:46:54.797Z,2.77
2019-05-25T05:50:01.206Z,2.60
2019-05-25T05:53:04.457Z,2.98
2019-05-25T05:56:07.495Z,3.15
2019-05-25T05:59:10.591Z,2.15
2019-05-25T06:02:13.820Z,2.10
2019-05-25T06:05:16.880Z,2.27
2019-05-25T06:08:19.968Z,2.25
2019-05-25T06:11:24.087Z,2.62
2019-05-25T06:14:27.283Z,2.30
2019-05-25T06:17:30.412Z,2.22
2019-05-25T06:20:34.494Z,1.92
2019-05-25T06:23:37.588Z,1.98
2019-05-25T06:26:40.771Z,2.55
2019-05-25T06:29:45.103Z,1.65
2019-05-25T06:32:48.196Z,1.67
2019-05-25T06:35:51.420Z,2.15
2019-05-25T06:38:54.537Z,1.77
2019-05-25T06:41:57.572Z,2.15
2019-05-25T06:45:00.710Z,1.85
2019-05-25T06:48:04.001Z,2.00
2019-05-25T06:51:07.051Z,1.32
2019-05-25T06:54:10.183Z,1.52
2019-05-25T06:57:13.239Z,1.30
2019-05-25T07:00:16.779Z,1.40
2019-05-25T07:03:19.907Z,1.40
2019-05-25T07:06:23.132Z,1.30
2019-05-25T07:09:26.299Z,1.57
2019-05-25T07:12:29.320Z,1.80
2019-05-25T07:15:32.439Z,1.32
2019-05-25T07:18:35.856Z,1.70
2019-05-25T07:21:39.931Z,1.52
2019-05-25T07:24:43.157Z,1.70
2019-05-25T07:27:58.725Z,1.52
2019-05-25T07:30:51.352Z,1.95
2019-05-25T07:33:54.591Z,1.80
2019-05-25T07:36:57.752Z,1.77
2019-05-25T07:40:00.984Z,1.47
2019-05-25T07:43:04.079Z,1.60
2019-05-25T07:46:07.277Z,1.85
2019-05-25T07:49:10.647Z,1.95
2019-05-25T07:52:13.886Z,1.55
2019-05-25T07:55:17.023Z,2.00
2019-05-25T07:58:21.991Z,2.15
2019-05-25T08:01:25.056Z,1.80
2019-05-25T08:04:29.971Z,1.90
2019-05-25T08:07:33.180Z,2.00
2019-05-25T08:10:36.304Z,1.80
2019-05-25T08:13:39.364Z,1.60
2019-05-25T08:16:42.502Z,1.87
2019-05-25T08:19:45.817Z,1.80
2019-05-25T08:22:49.026Z,1.98
2019-05-25T08:25:53.087Z,1.90
2019-05-25T08:28:56.208Z,1.80
2019-05-25T08:31:59.252Z,2.10
2019-05-25T08:35:02.444Z,1.95
2019-05-25T08:38:05.783Z,2.10
2019-05-25T08:41:08.940Z,2.22
2019-05-25T08:44:12.035Z,2.22
2019-05-25T08:47:15.133Z,1.85
2019-05-25T08:50:18.464Z,1.95
2019-05-25T08:53:39.566Z,1.90
2019-05-25T08:56:26.897Z,2.30
2019-05-25T08:59:30.060Z,2.10
2019-05-25T09:02:33.155Z,2.25
2019-05-25T09:05:36.247Z,2.08
2019-05-25T09:08:39.335Z,1.90
2019-05-25T09:11:42.462Z,2.30
2019-05-25T09:14:45.551Z,2.15
2019-05-25T09:17:48.719Z,1.60
2019-05-25T09:20:51.809Z,2.25
2019-05-25T09:23:54.955Z,2.08
2019-05-25T09:26:58.279Z,2.12
2019-05-25T09:30:01.439Z,2.30
2019-05-25T09:33:04.803Z,2.60
2019-05-25T09:36:07.896Z,1.95
2019-05-25T09:39:11.083Z,2.10
2019-05-25T09:42:14.180Z,1.98
2019-05-25T09:45:17.512Z,2.58
2019-05-25T09:48:20.672Z,2.12
2019-05-25T09:51:23.759Z,1.92
2019-05-25T09:54:27.032Z,2.00
2019-05-25T09:57:30.151Z,2.15
2019-05-25T10:00:33.857Z,2.47
2019-05-25T10:03:37.052Z,1.98
2019-05-25T10:06:41.847Z,2.17
2019-05-25T10:09:44.988Z,2.40
2019-05-25T10:12:49.967Z,1.90
2019-05-25T10:15:53.012Z,2.42
2019-05-25T10:18:56.135Z,2.50
2019-05-25T10:21:59.714Z,2.20
2019-05-25T10:25:03.119Z,2.10
2019-05-25T10:28:06.340Z,2.47
2019-05-25T10:31:09.541Z,2.10
2019-05-25T10:34:12.796Z,2.22
2019-05-25T10:37:15.930Z,2.67
2019-05-25T10:40:19.799Z,2.20
2019-05-25T10:43:23.034Z,2.37
2019-05-25T10:46:26.343Z,2.80
2019-05-25T10:49:30.618Z,2.55
2019-05-25T10:52:33.745Z,2.65
2019-05-25T10:55:36.845Z,2.52
2019-05-25T10:58:40.028Z,2.45
2019-05-25T11:01:43.135Z,2.40
2019-05-25T11:04:46.197Z,2.30
2019-05-25T11:07:50.332Z,2.20
2019-05-25T11:10:53.171Z,2.02
2019-05-25T11:13:56.311Z,1.87
2019-05-25T11:16:59.687Z,2.30
2019-05-25T11:20:03.022Z,2.10
2019-05-25T11:23:06.453Z,2.55
2019-05-25T11:26:09.714Z,2.37
2019-05-25T11:29:12.805Z,1.95
2019-05-25T11:32:16.150Z,2.22
2019-05-25T11:35:19.290Z,2.67
2019-05-25T11:38:22.540Z,2.25
2019-05-25T11:41:25.686Z,2.10
2019-05-25T11:44:29.195Z,2.10
2019-05-25T11:47:32.320Z,2.30
2019-05-25T11:50:35.580Z,1.85
2019-05-25T11:53:38.670Z,2.12
2019-05-25T11:56:41.768Z,2.00
2019-05-25T11:59:44.884Z,2.05
2019-05-25T12:02:47.992Z,2.47
2019-05-25T12:05:51.199Z,2.37
2019-05-25T12:08:54.236Z,2.05
2019-05-25T12:11:57.331Z,2.08
2019-05-25T12:15:00.536Z,2.30
2019-05-25T12:18:03.682Z,2.67
2019-05-25T12:21:06.815Z,2.60
2019-05-25T12:24:10.007Z,2.35
2019-05-25T12:27:13.099Z,2.80
2019-05-25T12:30:16.915Z,2.90
2019-05-25T12:33:20.111Z,2.55
2019-05-25T12:36:24.805Z,2.50
2019-05-25T12:39:27.954Z,2.60
2019-05-25T12:42:31.062Z,2.60
2019-05-25T12:45:34.120Z,2.42
2019-05-25T12:48:37.417Z,2.50
2019-05-25T12:51:40.509Z,2.20
2019-05-25T12:54:43.808Z,2.20
2019-05-25T12:57:46.995Z,2.30
2019-05-25T13:00:56.005Z,2.22
2019-05-25T13:03:55.030Z,2.50
2019-05-25T13:06:58.227Z,1.92
2019-05-25T13:10:01.367Z,2.33
2019-05-25T13:13:04.616Z,2.55
2019-05-25T13:16:07.853Z,2.40
2019-05-25T13:19:11.077Z,2.80
2019-05-25T13:22:14.203Z,2.22
2019-05-25T13:25:17.297Z,2.00
2019-05-25T13:28:20.487Z,2.47
2019-05-25T13:31:23.780Z,2.15
2019-05-25T13:34:26.884Z,2.15
2019-05-25T13:37:29.967Z,2.40
2019-05-25T13:40:33.060Z,1.92
2019-05-25T13:43:36.251Z,2.02
2019-05-25T13:46:39.387Z,2.05
2019-05-25T13:49:42.590Z,2.40
2019-05-25T13:52:45.779Z,2.08
2019-05-25T13:55:48.879Z,2.25
2019-05-25T13:58:52.983Z,1.90
2019-05-25T14:01:56.077Z,2.12
2019-05-25T14:04:59.231Z,2.00
2019-05-25T14:08:02.433Z,2.00
2019-05-25T14:11:05.636Z,2.27
2019-05-25T14:14:08.860Z,2.00
2019-05-25T14:17:12.022Z,1.57
2019-05-25T14:20:15.344Z,2.00
2019-05-25T14:23:18.606Z,2.10
2019-05-25T14:26:21.712Z,2.15
2019-05-25T14:29:26.258Z,1.90
2019-05-25T14:32:29.742Z,2.20
2019-05-25T14:35:32.868Z,2.22
2019-05-25T14:38:36.067Z,2.40
2019-05-25T14:41:39.273Z,2.02
2019-05-25T14:44:43.428Z,1.85
2019-05-25T14:47:46.645Z,2.05
2019-05-25T14:50:49.769Z,2.25
2019-05-25T14:53:52.966Z,1.95
2019-05-25T14:56:57.143Z,2.60
2019-05-25T15:00:00.265Z,2.30
2019-05-25T15:03:03.434Z,2.42
2019-05-25T15:06:06.666Z,2.75
2019-05-25T15:09:09.859Z,2.10
2019-05-25T15:12:13.127Z,2.10
2019-05-25T15:15:16.784Z,2.15
2019-05-25T15:18:20.015Z,2.40
2019-05-25T15:21:23.332Z,2.08
2019-05-25T15:24:26.443Z,1.98
2019-05-25T15:27:29.526Z,2.05
2019-05-25T15:30:32.631Z,1.87
2019-05-25T15:33:35.689Z,2.10
2019-05-25T15:36:38.891Z,2.10
2019-05-25T15:39:42.008Z,1.80
2019-05-25T15:42:45.163Z,2.10
2019-05-25T15:45:48.344Z,2.52
2019-05-25T15:48:51.532Z,1.95
2019-05-25T15:51:54.759Z,2.15
2019-05-25T15:54:57.983Z,2.50
2019-05-25T15:58:01.043Z,1.95
2019-05-25T16:01:04.285Z,2.45
2019-05-25T16:04:07.637Z,2.52
2019-05-25T16:07:10.836Z,2.80
2019-05-25T16:10:14.064Z,2.17
2019-05-25T16:13:17.531Z,3.25
2019-05-25T16:16:29.551Z,2.87
2019-05-25T16:19:25.667Z,2.00
2019-05-25T16:22:28.772Z,2.00
2019-05-25T16:25:31.883Z,2.30
2019-05-25T16:28:35.099Z,2.08
2019-05-25T16:31:38.443Z,2.45
2019-05-25T16:34:41.642Z,2.12
2019-05-25T16:37:45.062Z,2.62
2019-05-25T16:40:48.372Z,2.27
2019-05-25T16:43:51.731Z,2.52
2019-05-25T16:46:54.931Z,2.90
2019-05-25T16:49:58.133Z,3.05
2019-05-25T16:53:01.236Z,3.40
2019-05-25T16:56:04.448Z,3.62
2019-05-25T16:59:07.603Z,4.62
2019-05-25T17:02:10.810Z,5.03
2019-05-25T17:05:14.207Z,4.10
2019-05-25T17:08:17.295Z,2.77
2019-05-25T17:11:20.495Z,2.27
2019-05-25T17:14:23.587Z,2.42
2019-05-25T17:17:26.689Z,2.67
2019-05-25T17:20:29.877Z,2.42
2019-05-25T17:23:33.109Z,2.47
2019-05-25T17:26:36.298Z,2.60
2019-05-25T17:29:39.463Z,2.50
2019-05-25T17:32:42.687Z,3.15
2019-05-25T17:35:45.752Z,3.27
2019-05-25T17:38:48.979Z,2.60
2019-05-25T17:41:52.163Z,2.80
2019-05-25T17:44:55.343Z,2.70
2019-05-25T17:47:58.564Z,2.60
2019-05-25T17:51:01.745Z,1.87
2019-05-25T17:54:05.058Z,2.45
2019-05-25T17:57:08.247Z,1.80
2019-05-25T18:00:11.707Z,2.42
2019-05-25T18:03:16.285Z,2.20
2019-05-25T18:06:19.340Z,2.58
2019-05-25T18:09:22.559Z,2.37
2019-05-25T18:12:25.860Z,2.37
2019-05-25T18:15:29.028Z,2.33
2019-05-25T18:18:32.157Z,2.45
2019-05-25T18:21:35.409Z,2.02
2019-05-25T18:24:38.591Z,2.62
2019-05-25T18:27:41.695Z,2.52
2019-05-25T18:30:44.802Z,2.22
2019-05-25T18:33:47.932Z,2.47
2019-05-25T18:36:50.984Z,2.47
2019-05-25T18:39:54.179Z,2.45
2019-05-25T18:42:57.321Z,2.65
2019-05-25T18:46:00.501Z,2.58
2019-05-25T18:49:03.811Z,3.30
2019-05-25T18:52:06.956Z,2.83
2019-05-25T18:55:10.439Z,2.60
2019-05-25T18:58:13.684Z,2.90
2019-05-25T19:01:16.846Z,3.00
2019-05-25T19:04:20.179Z,3.65
2019-05-25T19:07:24.544Z,3.37
2019-05-25T19:10:27.868Z,3.45
2019-05-25T19:13:31.002Z,7.20
2019-05-25T19:16:34.064Z,6.53
2019-05-25T19:19:37.185Z,4.55
2019-05-25T19:22:40.343Z,3.83
2019-05-25T19:25:43.636Z,4.22
2019-05-25T19:28:46.769Z,3.90
2019-05-25T19:31:49.827Z,4.03
2019-05-25T19:34:59.760Z,3.95
2019-05-25T19:37:57.967Z,3.70
2019-05-25T19:41:01.268Z,4.35
2019-05-25T19:44:04.487Z,4.35
2019-05-25T19:47:07.544Z,4.20
2019-05-25T19:50:11.248Z,4.70
2019-05-25T19:53:14.444Z,4.33
2019-05-25T19:56:17.531Z,4.25
2019-05-25T19:59:20.729Z,4.17
2019-05-25T20:02:23.823Z,4.40
2019-05-25T20:05:27.067Z,4.62
2019-05-25T20:08:30.216Z,5.10
2019-05-25T20:11:33.403Z,5.17
2019-05-25T20:14:36.532Z,4.60
2019-05-25T20:17:39.699Z,4.30
2019-05-25T20:20:42.790Z,4.20
2019-05-25T20:23:45.890Z,4.28
2019-05-25T20:26:49.088Z,4.85
2019-05-25T20:29:52.175Z,5.40
2019-05-25T20:32:55.421Z,4.75
2019-05-25T20:35:58.579Z,5.40
2019-05-25T20:39:01.855Z,5.85
2019-05-25T20:42:06.948Z,5.25
2019-05-25T20:45:43.081Z,5.12
2019-05-25T20:48:46.154Z,5.00
2019-05-25T20:51:49.395Z,5.20
2019-05-25T20:54:52.643Z,4.65
2019-05-25T20:57:55.880Z,4.70
2019-05-25T21:00:59.079Z,4.97
2019-05-25T21:04:03.480Z,4.05
2019-05-25T21:07:07.720Z,5.42
2019-05-25T21:10:11.189Z,4.90
2019-05-25T21:13:14.315Z,5.15
2019-05-25T21:16:17.610Z,5.40
2019-05-25T21:19:20.848Z,5.53
2019-05-25T21:22:24.111Z,5.20
2019-05-25T21:25:27.158Z,5.40
2019-05-25T21:28:30.391Z,5.75
2019-05-25T21:31:33.496Z,5.70
2019-05-25T21:34:36.656Z,5.08
2019-05-25T21:37:39.880Z,5.00
2019-05-25T21:40:42.928Z,4.75
2019-05-25T21:43:46.030Z,5.28
2019-05-25T21:46:49.161Z,5.05
2019-05-25T21:49:52.307Z,5.37
2019-05-25T21:52:55.437Z,5.78
2019-05-25T21:55:58.603Z,5.30
2019-05-25T21:59:01.900Z,5.65
2019-05-25T22:02:05.129Z,6.03
2019-05-25T22:05:08.387Z,5.55
2019-05-25T22:08:11.724Z,6.33
2019-05-25T22:11:14.784Z,6.78
2019-05-25T22:14:17.911Z,6.80
2019-05-25T22:17:21.992Z,6.12
2019-05-25T22:20:25.108Z,5.92
2019-05-25T22:23:28.225Z,7.03
2019-05-25T22:26:31.412Z,7.55
2019-05-25T22:29:34.712Z,6.60
2019-05-25T22:32:37.988Z,6.65
2019-05-25T22:35:41.126Z,6.60
2019-05-25T22:38:44.188Z,6.60
2019-05-25T22:41:47.247Z,6.67
2019-05-25T22:44:50.639Z,7.50
2019-05-25T22:47:53.744Z,7.47
2019-05-25T22:50:56.831Z,6.60
2019-05-25T22:53:59.960Z,6.67
2019-05-25T22:57:03.428Z,6.85
2019-05-25T23:00:08.036Z,6.67
2019-05-25T23:03:12.475Z,6.83
2019-05-25T23:06:15.672Z,7.00
2019-05-25T23:09:18.916Z,7.20
2019-05-25T23:12:22.230Z,7.37
2019-05-25T23:15:25.532Z,7.50
2019-05-25T23:18:28.632Z,7.58
2019-05-25T23:21:31.726Z,6.72
2019-05-25T23:24:34.949Z,7.92
2019-05-25T23:27:39.143Z,8.18
2019-05-25T23:30:42.359Z,7.92
2019-05-25T23:33:45.525Z,8.13
2019-05-25T23:36:49.744Z,8.10
2019-05-25T23:40:11.940Z,7.90
2019-05-25T23:43:15.288Z,7.72
2019-05-25T23:46:18.515Z,8.18
2019-05-25T23:49:22.795Z,8.05
2019-05-25T23:52:26.047Z,8.50
2019-05-25T23:55:29.392Z,8.28
2019-05-25T23:58:33.715Z,8.60
